sensor_id;sensor_type;location;lat;lon;timestamp;P1;durP1;ratioP1;P2;durP2;ratioP2
20073;SDS011;10197;54.282;10.078;2023-07-30T00:02:24;5.95;;;4.68;;
20073;SDS011;10197;54.282;10.078;2023-07-30T00:04:51;9.00;;;4.35;;
20073;SDS011;10197;54.282;10.078;2023-07-30T00:07:18;6.60;;;4.28;;
20073;SDS011;10197;54.282;10.078;2023-07-30T00:09:44;7.00;;;4.45;;
20073;SDS011;10197;54.282;10.078;2023-07-30T00:12:12;5.82;;;4.00;;
20073;SDS011;10197;54.282;10.078;2023-07-30T00:14:39;6.70;;;4.60;;
20073;SDS011;10197;54.282;10.078;2023-07-30T00:17:08;6.00;;;4.20;;
20073;SDS011;10197;54.282;10.078;2023-07-30T00:19:34;6.57;;;4.32;;
20073;SDS011;10197;54.282;10.078;2023-07-30T00:22:01;6.95;;;4.40;;
20073;SDS011;10197;54.282;10.078;2023-07-30T00:24:29;9.82;;;4.40;;
20073;SDS011;10197;54.282;10.078;2023-07-30T00:26:55;7.20;;;4.20;;
20073;SDS011;10197;54.282;10.078;2023-07-30T00:29:22;5.82;;;4.10;;
20073;SDS011;10197;54.282;10.078;2023-07-30T00:31:49;6.13;;;4.15;;
20073;SDS011;10197;54.282;10.078;2023-07-30T00:34:17;5.45;;;4.32;;
20073;SDS011;10197;54.282;10.078;2023-07-30T00:36:44;6.95;;;3.88;;
20073;SDS011;10197;54.282;10.078;2023-07-30T00:39:13;7.13;;;4.28;;
20073;SDS011;10197;54.282;10.078;2023-07-30T00:41:40;13.40;;;5.50;;
20073;SDS011;10197;54.282;10.078;2023-07-30T00:44:07;14.60;;;6.68;;
20073;SDS011;10197;54.282;10.078;2023-07-30T00:46:34;11.23;;;5.75;;
20073;SDS011;10197;54.282;10.078;2023-07-30T00:52:45;5.93;;;4.93;;
20073;SDS011;10197;54.282;10.078;2023-07-30T00:55:11;9.30;;;5.85;;
20073;SDS011;10197;54.282;10.078;2023-07-30T00:57:38;9.93;;;5.40;;
20073;SDS011;10197;54.282;10.078;2023-07-30T01:00:06;9.88;;;6.55;;
20073;SDS011;10197;54.282;10.078;2023-07-30T01:02:34;15.20;;;7.10;;
20073;SDS011;10197;54.282;10.078;2023-07-30T01:05:01;12.93;;;6.60;;
20073;SDS011;10197;54.282;10.078;2023-07-30T01:07:29;9.75;;;6.40;;
20073;SDS011;10197;54.282;10.078;2023-07-30T01:09:57;8.30;;;6.60;;
20073;SDS011;10197;54.282;10.078;2023-07-30T01:12:24;11.60;;;6.60;;
20073;SDS011;10197;54.282;10.078;2023-07-30T01:14:52;12.30;;;6.40;;
20073;SDS011;10197;54.282;10.078;2023-07-30T01:17:21;10.65;;;6.25;;
20073;SDS011;10197;54.282;10.078;2023-07-30T01:19:49;11.80;;;7.35;;
20073;SDS011;10197;54.282;10.078;2023-07-30T01:22:21;13.13;;;7.57;;
20073;SDS011;10197;54.282;10.078;2023-07-30T01:24:48;17.23;;;9.05;;
20073;SDS011;10197;54.282;10.078;2023-07-30T01:27:19;15.82;;;7.80;;
20073;SDS011;10197;54.282;10.078;2023-07-30T01:29:51;12.25;;;7.63;;
20073;SDS011;10197;54.282;10.078;2023-07-30T01:32:20;11.73;;;8.18;;
20073;SDS011;10197;54.282;10.078;2023-07-30T01:34:54;15.55;;;9.25;;
20073;SDS011;10197;54.282;10.078;2023-07-30T01:37:25;17.08;;;10.55;;
20073;SDS011;10197;54.282;10.078;2023-07-30T01:39:52;15.38;;;9.52;;
20073;SDS011;10197;54.282;10.078;2023-07-30T01:42:19;10.95;;;7.75;;
20073;SDS011;10197;54.282;10.078;2023-07-30T01:44:46;13.32;;;8.23;;
20073;SDS011;10197;54.282;10.078;2023-07-30T01:47:13;19.92;;;10.85;;
20073;SDS011;10197;54.282;10.078;2023-07-30T01:49:40;13.55;;;8.77;;
20073;SDS011;10197;54.282;10.078;2023-07-30T01:52:07;13.73;;;9.10;;
20073;SDS011;10197;54.282;10.078;2023-07-30T01:54:35;17.30;;;10.20;;
20073;SDS011;10197;54.282;10.078;2023-07-30T01:57:02;16.88;;;10.27;;
20073;SDS011;10197;54.282;10.078;2023-07-30T01:59:30;16.13;;;10.75;;
20073;SDS011;10197;54.282;10.078;2023-07-30T02:01:57;16.83;;;10.60;;
20073;SDS011;10197;54.282;10.078;2023-07-30T02:04:24;15.32;;;9.50;;
20073;SDS011;10197;54.282;10.078;2023-07-30T02:06:51;12.85;;;8.77;;
20073;SDS011;10197;54.282;10.078;2023-07-30T02:09:18;9.80;;;7.65;;
20073;SDS011;10197;54.282;10.078;2023-07-30T02:11:46;16.02;;;9.55;;
20073;SDS011;10197;54.282;10.078;2023-07-30T02:14:13;19.27;;;9.82;;
20073;SDS011;10197;54.282;10.078;2023-07-30T02:16:41;15.10;;;9.68;;
20073;SDS011;10197;54.282;10.078;2023-07-30T02:19:09;15.48;;;8.57;;
20073;SDS011;10197;54.282;10.078;2023-07-30T02:21:35;12.13;;;7.57;;
20073;SDS011;10197;54.282;10.078;2023-07-30T02:24:06;13.88;;;8.27;;
20073;SDS011;10197;54.282;10.078;2023-07-30T02:26:35;15.00;;;8.18;;
20073;SDS011;10197;54.282;10.078;2023-07-30T02:29:04;16.88;;;8.93;;
20073;SDS011;10197;54.282;10.078;2023-07-30T02:31:30;10.38;;;7.07;;
20073;SDS011;10197;54.282;10.078;2023-07-30T02:33:57;14.75;;;8.82;;
20073;SDS011;10197;54.282;10.078;2023-07-30T02:36:24;14.98;;;8.45;;
20073;SDS011;10197;54.282;10.078;2023-07-30T02:38:51;11.77;;;8.95;;
20073;SDS011;10197;54.282;10.078;2023-07-30T02:41:18;13.40;;;8.43;;
20073;SDS011;10197;54.282;10.078;2023-07-30T02:43:45;16.52;;;9.75;;
20073;SDS011;10197;54.282;10.078;2023-07-30T02:46:13;13.00;;;8.52;;
20073;SDS011;10197;54.282;10.078;2023-07-30T02:48:39;14.30;;;7.80;;
20073;SDS011;10197;54.282;10.078;2023-07-30T02:51:06;11.13;;;6.60;;
20073;SDS011;10197;54.282;10.078;2023-07-30T02:53:33;11.25;;;7.00;;
20073;SDS011;10197;54.282;10.078;2023-07-30T02:56:00;8.60;;;6.30;;
20073;SDS011;10197;54.282;10.078;2023-07-30T02:58:27;8.50;;;5.82;;
20073;SDS011;10197;54.282;10.078;2023-07-30T03:00:54;7.57;;;5.75;;
20073;SDS011;10197;54.282;10.078;2023-07-30T03:03:23;7.85;;;6.22;;
20073;SDS011;10197;54.282;10.078;2023-07-30T03:05:50;7.85;;;6.55;;
20073;SDS011;10197;54.282;10.078;2023-07-30T03:08:16;8.65;;;6.60;;
20073;SDS011;10197;54.282;10.078;2023-07-30T03:10:43;9.23;;;6.72;;
20073;SDS011;10197;54.282;10.078;2023-07-30T03:13:10;10.43;;;7.20;;
20073;SDS011;10197;54.282;10.078;2023-07-30T03:15:36;9.55;;;7.25;;
20073;SDS011;10197;54.282;10.078;2023-07-30T03:18:03;10.00;;;7.30;;
20073;SDS011;10197;54.282;10.078;2023-07-30T03:20:32;11.63;;;9.35;;
20073;SDS011;10197;54.282;10.078;2023-07-30T03:22:59;12.30;;;9.02;;
20073;SDS011;10197;54.282;10.078;2023-07-30T03:25:27;11.77;;;7.72;;
20073;SDS011;10197;54.282;10.078;2023-07-30T03:27:54;9.35;;;7.00;;
20073;SDS011;10197;54.282;10.078;2023-07-30T03:30:21;11.13;;;8.18;;
20073;SDS011;10197;54.282;10.078;2023-07-30T03:32:48;10.82;;;7.32;;
20073;SDS011;10197;54.282;10.078;2023-07-30T03:35:15;10.15;;;6.78;;
20073;SDS011;10197;54.282;10.078;2023-07-30T03:37:43;9.45;;;6.90;;
20073;SDS011;10197;54.282;10.078;2023-07-30T03:40:10;9.88;;;7.05;;
20073;SDS011;10197;54.282;10.078;2023-07-30T03:42:38;10.75;;;7.90;;
20073;SDS011;10197;54.282;10.078;2023-07-30T03:45:05;11.77;;;8.85;;
20073;SDS011;10197;54.282;10.078;2023-07-30T03:47:33;13.13;;;8.00;;
20073;SDS011;10197;54.282;10.078;2023-07-30T03:49:59;10.27;;;7.43;;
20073;SDS011;10197;54.282;10.078;2023-07-30T03:52:26;14.80;;;9.10;;
20073;SDS011;10197;54.282;10.078;2023-07-30T03:54:55;12.93;;;8.05;;
20073;SDS011;10197;54.282;10.078;2023-07-30T03:57:22;8.88;;;6.80;;
20073;SDS011;10197;54.282;10.078;2023-07-30T03:59:48;12.05;;;7.78;;
20073;SDS011;10197;54.282;10.078;2023-07-30T04:02:15;10.68;;;6.90;;
20073;SDS011;10197;54.282;10.078;2023-07-30T04:04:42;10.95;;;7.20;;
20073;SDS011;10197;54.282;10.078;2023-07-30T04:07:10;9.35;;;6.82;;
20073;SDS011;10197;54.282;10.078;2023-07-30T04:09:37;9.25;;;6.18;;
20073;SDS011;10197;54.282;10.078;2023-07-30T04:12:05;8.88;;;7.00;;
20073;SDS011;10197;54.282;10.078;2023-07-30T04:14:32;10.85;;;8.02;;
20073;SDS011;10197;54.282;10.078;2023-07-30T04:17:02;9.02;;;7.68;;
20073;SDS011;10197;54.282;10.078;2023-07-30T04:19:30;11.55;;;9.88;;
20073;SDS011;10197;54.282;10.078;2023-07-30T04:21:57;11.80;;;9.75;;
20073;SDS011;10197;54.282;10.078;2023-07-30T04:24:24;14.77;;;11.23;;
20073;SDS011;10197;54.282;10.078;2023-07-30T04:26:51;17.15;;;15.35;;
20073;SDS011;10197;54.282;10.078;2023-07-30T04:29:19;17.38;;;14.52;;
20073;SDS011;10197;54.282;10.078;2023-07-30T04:31:46;19.88;;;14.57;;
20073;SDS011;10197;54.282;10.078;2023-07-30T04:34:13;19.83;;;16.35;;
20073;SDS011;10197;54.282;10.078;2023-07-30T04:36:41;22.75;;;16.25;;
20073;SDS011;10197;54.282;10.078;2023-07-30T04:39:08;27.30;;;19.52;;
20073;SDS011;10197;54.282;10.078;2023-07-30T04:41:38;19.35;;;14.55;;
20073;SDS011;10197;54.282;10.078;2023-07-30T04:44:05;20.23;;;16.30;;
20073;SDS011;10197;54.282;10.078;2023-07-30T04:46:34;22.92;;;17.13;;
20073;SDS011;10197;54.282;10.078;2023-07-30T04:49:02;22.73;;;19.08;;
20073;SDS011;10197;54.282;10.078;2023-07-30T04:51:30;22.48;;;18.60;;
20073;SDS011;10197;54.282;10.078;2023-07-30T04:53:57;22.48;;;19.75;;
20073;SDS011;10197;54.282;10.078;2023-07-30T04:56:24;19.13;;;15.80;;
20073;SDS011;10197;54.282;10.078;2023-07-30T04:58:52;20.02;;;17.17;;
20073;SDS011;10197;54.282;10.078;2023-07-30T05:01:20;18.60;;;16.50;;
20073;SDS011;10197;54.282;10.078;2023-07-30T05:03:48;20.75;;;16.40;;
20073;SDS011;10197;54.282;10.078;2023-07-30T05:06:14;18.95;;;15.10;;
20073;SDS011;10197;54.282;10.078;2023-07-30T05:08:41;23.33;;;19.77;;
20073;SDS011;10197;54.282;10.078;2023-07-30T05:11:08;22.33;;;18.88;;
20073;SDS011;10197;54.282;10.078;2023-07-30T05:13:35;22.85;;;18.60;;
20073;SDS011;10197;54.282;10.078;2023-07-30T05:16:03;21.70;;;17.17;;
20073;SDS011;10197;54.282;10.078;2023-07-30T05:18:30;20.83;;;15.80;;
20073;SDS011;10197;54.282;10.078;2023-07-30T05:20:59;21.17;;;17.13;;
20073;SDS011;10197;54.282;10.078;2023-07-30T05:23:29;22.05;;;18.30;;
20073;SDS011;10197;54.282;10.078;2023-07-30T05:25:55;20.55;;;15.98;;
20073;SDS011;10197;54.282;10.078;2023-07-30T05:28:22;22.58;;;14.75;;
20073;SDS011;10197;54.282;10.078;2023-07-30T05:30:49;22.80;;;16.08;;
20073;SDS011;10197;54.282;10.078;2023-07-30T05:33:16;26.48;;;17.85;;
20073;SDS011;10197;54.282;10.078;2023-07-30T05:35:43;22.63;;;17.48;;
20073;SDS011;10197;54.282;10.078;2023-07-30T05:38:12;23.30;;;17.00;;
20073;SDS011;10197;54.282;10.078;2023-07-30T05:40:41;20.85;;;15.88;;
20073;SDS011;10197;54.282;10.078;2023-07-30T05:43:07;25.60;;;18.05;;
20073;SDS011;10197;54.282;10.078;2023-07-30T05:45:34;26.25;;;16.15;;
20073;SDS011;10197;54.282;10.078;2023-07-30T05:48:01;15.63;;;13.00;;
20073;SDS011;10197;54.282;10.078;2023-07-30T05:50:28;26.77;;;17.10;;
20073;SDS011;10197;54.282;10.078;2023-07-30T05:52:54;23.02;;;17.17;;
20073;SDS011;10197;54.282;10.078;2023-07-30T05:55:23;26.23;;;17.67;;
20073;SDS011;10197;54.282;10.078;2023-07-30T05:57:50;27.83;;;17.42;;
20073;SDS011;10197;54.282;10.078;2023-07-30T06:00:18;23.25;;;17.10;;
20073;SDS011;10197;54.282;10.078;2023-07-30T06:02:45;26.58;;;16.15;;
20073;SDS011;10197;54.282;10.078;2023-07-30T06:05:12;29.23;;;17.42;;
20073;SDS011;10197;54.282;10.078;2023-07-30T06:07:39;20.80;;;15.02;;
20073;SDS011;10197;54.282;10.078;2023-07-30T06:10:08;27.55;;;17.55;;
20073;SDS011;10197;54.282;10.078;2023-07-30T06:12:37;24.90;;;15.60;;
20073;SDS011;10197;54.282;10.078;2023-07-30T06:15:05;27.45;;;15.27;;
20073;SDS011;10197;54.282;10.078;2023-07-30T06:17:32;19.48;;;12.00;;
20073;SDS011;10197;54.282;10.078;2023-07-30T06:20:01;26.67;;;14.90;;
20073;SDS011;10197;54.282;10.078;2023-07-30T06:22:27;18.23;;;14.10;;
20073;SDS011;10197;54.282;10.078;2023-07-30T06:24:54;17.40;;;12.98;;
20073;SDS011;10197;54.282;10.078;2023-07-30T06:27:22;22.70;;;15.48;;
20073;SDS011;10197;54.282;10.078;2023-07-30T06:29:50;18.52;;;11.80;;
20073;SDS011;10197;54.282;10.078;2023-07-30T06:32:17;18.50;;;11.82;;
20073;SDS011;10197;54.282;10.078;2023-07-30T06:34:43;20.15;;;13.80;;
20073;SDS011;10197;54.282;10.078;2023-07-30T06:37:12;17.73;;;10.85;;
20073;SDS011;10197;54.282;10.078;2023-07-30T06:39:38;19.25;;;12.48;;
20073;SDS011;10197;54.282;10.078;2023-07-30T06:42:05;18.15;;;12.00;;
20073;SDS011;10197;54.282;10.078;2023-07-30T06:44:33;19.73;;;11.63;;
20073;SDS011;10197;54.282;10.078;2023-07-30T06:47:01;20.67;;;12.65;;
20073;SDS011;10197;54.282;10.078;2023-07-30T06:49:28;19.67;;;12.32;;
20073;SDS011;10197;54.282;10.078;2023-07-30T06:51:55;16.60;;;11.40;;
20073;SDS011;10197;54.282;10.078;2023-07-30T06:54:22;18.45;;;10.57;;
20073;SDS011;10197;54.282;10.078;2023-07-30T06:56:48;17.90;;;10.50;;
20073;SDS011;10197;54.282;10.078;2023-07-30T06:59:16;19.48;;;10.35;;
20073;SDS011;10197;54.282;10.078;2023-07-30T07:01:42;21.45;;;11.45;;
20073;SDS011;10197;54.282;10.078;2023-07-30T07:04:10;21.02;;;10.35;;
20073;SDS011;10197;54.282;10.078;2023-07-30T07:06:37;17.85;;;10.55;;
20073;SDS011;10197;54.282;10.078;2023-07-30T07:09:05;20.00;;;9.27;;
20073;SDS011;10197;54.282;10.078;2023-07-30T07:11:32;18.40;;;10.60;;
20073;SDS011;10197;54.282;10.078;2023-07-30T07:13:58;17.60;;;9.13;;
20073;SDS011;10197;54.282;10.078;2023-07-30T07:16:25;12.20;;;7.50;;
20073;SDS011;10197;54.282;10.078;2023-07-30T07:18:52;12.23;;;7.75;;
20073;SDS011;10197;54.282;10.078;2023-07-30T07:21:20;14.90;;;7.25;;
20073;SDS011;10197;54.282;10.078;2023-07-30T07:23:47;14.20;;;8.23;;
20073;SDS011;10197;54.282;10.078;2023-07-30T07:26:13;14.32;;;8.30;;
20073;SDS011;10197;54.282;10.078;2023-07-30T07:28:40;14.48;;;9.07;;
20073;SDS011;10197;54.282;10.078;2023-07-30T07:31:07;15.95;;;8.43;;
20073;SDS011;10197;54.282;10.078;2023-07-30T07:33:34;17.75;;;9.25;;
20073;SDS011;10197;54.282;10.078;2023-07-30T07:36:02;12.45;;;7.53;;
20073;SDS011;10197;54.282;10.078;2023-07-30T07:38:32;13.80;;;7.03;;
20073;SDS011;10197;54.282;10.078;2023-07-30T07:41:00;13.60;;;7.15;;
20073;SDS011;10197;54.282;10.078;2023-07-30T07:43:27;11.15;;;7.22;;
20073;SDS011;10197;54.282;10.078;2023-07-30T07:45:53;12.07;;;7.25;;
20073;SDS011;10197;54.282;10.078;2023-07-30T07:48:20;13.98;;;6.47;;
20073;SDS011;10197;54.282;10.078;2023-07-30T07:50:48;15.23;;;7.78;;
20073;SDS011;10197;54.282;10.078;2023-07-30T07:53:15;16.33;;;7.40;;
20073;SDS011;10197;54.282;10.078;2023-07-30T07:55:43;13.32;;;6.55;;
20073;SDS011;10197;54.282;10.078;2023-07-30T07:58:10;10.65;;;6.13;;
20073;SDS011;10197;54.282;10.078;2023-07-30T08:00:36;11.63;;;6.93;;
20073;SDS011;10197;54.282;10.078;2023-07-30T08:03:03;10.57;;;6.57;;
20073;SDS011;10197;54.282;10.078;2023-07-30T08:05:30;13.23;;;7.95;;
20073;SDS011;10197;54.282;10.078;2023-07-30T08:07:57;16.80;;;7.05;;
20073;SDS011;10197;54.282;10.078;2023-07-30T08:10:25;12.35;;;7.07;;
20073;SDS011;10197;54.282;10.078;2023-07-30T08:12:53;11.15;;;6.78;;
20073;SDS011;10197;54.282;10.078;2023-07-30T08:15:20;11.60;;;6.70;;
20073;SDS011;10197;54.282;10.078;2023-07-30T08:17:47;9.85;;;5.90;;
20073;SDS011;10197;54.282;10.078;2023-07-30T08:20:14;11.80;;;5.43;;
20073;SDS011;10197;54.282;10.078;2023-07-30T08:22:41;9.20;;;6.60;;
20073;SDS011;10197;54.282;10.078;2023-07-30T08:25:08;13.43;;;5.75;;
20073;SDS011;10197;54.282;10.078;2023-07-30T08:27:35;9.77;;;4.97;;
20073;SDS011;10197;54.282;10.078;2023-07-30T08:30:04;14.95;;;6.38;;
20073;SDS011;10197;54.282;10.078;2023-07-30T08:32:32;7.93;;;5.22;;
20073;SDS011;10197;54.282;10.078;2023-07-30T08:34:59;12.90;;;5.80;;
20073;SDS011;10197;54.282;10.078;2023-07-30T08:37:26;9.82;;;5.80;;
20073;SDS011;10197;54.282;10.078;2023-07-30T08:39:52;9.80;;;5.30;;
20073;SDS011;10197;54.282;10.078;2023-07-30T08:42:19;7.25;;;4.72;;
20073;SDS011;10197;54.282;10.078;2023-07-30T08:44:46;13.32;;;5.03;;
20073;SDS011;10197;54.282;10.078;2023-07-30T08:47:14;11.20;;;7.05;;
20073;SDS011;10197;54.282;10.078;2023-07-30T08:49:41;13.45;;;5.50;;
20073;SDS011;10197;54.282;10.078;2023-07-30T08:52:08;10.07;;;4.82;;
20073;SDS011;10197;54.282;10.078;2023-07-30T08:54:36;9.63;;;5.00;;
20073;SDS011;10197;54.282;10.078;2023-07-30T08:57:03;13.35;;;5.35;;
20073;SDS011;10197;54.282;10.078;2023-07-30T08:59:31;9.88;;;4.25;;
20073;SDS011;10197;54.282;10.078;2023-07-30T09:01:59;11.65;;;4.78;;
20073;SDS011;10197;54.282;10.078;2023-07-30T09:04:28;10.25;;;4.82;;
20073;SDS011;10197;54.282;10.078;2023-07-30T09:06:56;9.50;;;4.30;;
20073;SDS011;10197;54.282;10.078;2023-07-30T09:09:23;10.70;;;4.80;;
20073;SDS011;10197;54.282;10.078;2023-07-30T09:11:50;10.50;;;3.92;;
20073;SDS011;10197;54.282;10.078;2023-07-30T09:14:19;13.20;;;4.30;;
20073;SDS011;10197;54.282;10.078;2023-07-30T09:16:46;11.38;;;4.15;;
20073;SDS011;10197;54.282;10.078;2023-07-30T09:19:15;9.73;;;3.90;;
20073;SDS011;10197;54.282;10.078;2023-07-30T09:21:44;10.05;;;4.30;;
20073;SDS011;10197;54.282;10.078;2023-07-30T09:24:11;9.55;;;3.58;;
20073;SDS011;10197;54.282;10.078;2023-07-30T09:26:41;8.02;;;3.65;;
20073;SDS011;10197;54.282;10.078;2023-07-30T09:29:08;10.73;;;3.60;;
20073;SDS011;10197;54.282;10.078;2023-07-30T09:31:48;12.60;;;3.80;;
20073;SDS011;10197;54.282;10.078;2023-07-30T09:34:20;11.02;;;3.92;;
20073;SDS011;10197;54.282;10.078;2023-07-30T09:36:51;10.10;;;3.28;;
20073;SDS011;10197;54.282;10.078;2023-07-30T09:39:20;9.15;;;3.33;;
20073;SDS011;10197;54.282;10.078;2023-07-30T09:41:48;15.10;;;4.15;;
20073;SDS011;10197;54.282;10.078;2023-07-30T09:44:16;12.73;;;3.60;;
20073;SDS011;10197;54.282;10.078;2023-07-30T09:46:43;13.38;;;3.83;;
20073;SDS011;10197;54.282;10.078;2023-07-30T09:49:11;10.13;;;3.40;;
20073;SDS011;10197;54.282;10.078;2023-07-30T09:51:38;12.98;;;3.63;;
20073;SDS011;10197;54.282;10.078;2023-07-30T09:54:07;11.70;;;3.50;;
20073;SDS011;10197;54.282;10.078;2023-07-30T09:56:33;9.73;;;3.80;;
20073;SDS011;10197;54.282;10.078;2023-07-30T09:59:00;8.27;;;4.05;;
20073;SDS011;10197;54.282;10.078;2023-07-30T10:01:27;12.88;;;3.75;;
20073;SDS011;10197;54.282;10.078;2023-07-30T10:03:55;11.73;;;3.38;;
20073;SDS011;10197;54.282;10.078;2023-07-30T10:06:23;10.80;;;3.28;;
20073;SDS011;10197;54.282;10.078;2023-07-30T10:08:52;10.95;;;4.15;;
20073;SDS011;10197;54.282;10.078;2023-07-30T10:11:22;8.00;;;3.45;;
20073;SDS011;10197;54.282;10.078;2023-07-30T10:13:50;9.90;;;4.00;;
20073;SDS011;10197;54.282;10.078;2023-07-30T10:16:17;12.32;;;4.05;;
20073;SDS011;10197;54.282;10.078;2023-07-30T10:18:44;11.88;;;4.28;;
20073;SDS011;10197;54.282;10.078;2023-07-30T10:21:11;11.95;;;4.57;;
20073;SDS011;10197;54.282;10.078;2023-07-30T10:23:49;12.98;;;5.28;;
20073;SDS011;10197;54.282;10.078;2023-07-30T10:26:27;13.25;;;3.95;;
20073;SDS011;10197;54.282;10.078;2023-07-30T10:29:12;9.98;;;3.88;;
20073;SDS011;10197;54.282;10.078;2023-07-30T10:31:40;9.10;;;3.72;;
20073;SDS011;10197;54.282;10.078;2023-07-30T10:34:07;14.65;;;5.43;;
20073;SDS011;10197;54.282;10.078;2023-07-30T10:36:36;17.38;;;5.90;;
20073;SDS011;10197;54.282;10.078;2023-07-30T10:39:11;19.88;;;6.35;;
20073;SDS011;10197;54.282;10.078;2023-07-30T10:41:45;18.17;;;6.30;;
20073;SDS011;10197;54.282;10.078;2023-07-30T10:44:19;18.85;;;6.30;;
20073;SDS011;10197;54.282;10.078;2023-07-30T10:46:49;14.05;;;5.50;;
20073;SDS011;10197;54.282;10.078;2023-07-30T10:49:16;14.35;;;5.43;;
20073;SDS011;10197;54.282;10.078;2023-07-30T10:51:42;15.75;;;5.80;;
20073;SDS011;10197;54.282;10.078;2023-07-30T10:54:09;12.20;;;5.70;;
20073;SDS011;10197;54.282;10.078;2023-07-30T10:56:36;18.77;;;6.65;;
20073;SDS011;10197;54.282;10.078;2023-07-30T10:59:05;16.58;;;5.70;;
20073;SDS011;10197;54.282;10.078;2023-07-30T11:01:36;16.05;;;5.55;;
20073;SDS011;10197;54.282;10.078;2023-07-30T11:04:05;17.48;;;4.60;;
20073;SDS011;10197;54.282;10.078;2023-07-30T11:06:34;21.10;;;6.22;;
20073;SDS011;10197;54.282;10.078;2023-07-30T11:09:02;16.92;;;5.60;;
20073;SDS011;10197;54.282;10.078;2023-07-30T11:11:31;21.48;;;5.88;;
20073;SDS011;10197;54.282;10.078;2023-07-30T11:13:58;13.90;;;6.05;;
20073;SDS011;10197;54.282;10.078;2023-07-30T11:16:26;16.60;;;5.25;;
20073;SDS011;10197;54.282;10.078;2023-07-30T11:18:53;17.42;;;5.20;;
20073;SDS011;10197;54.282;10.078;2023-07-30T11:21:21;15.88;;;5.35;;
20073;SDS011;10197;54.282;10.078;2023-07-30T11:23:50;13.00;;;5.47;;
20073;SDS011;10197;54.282;10.078;2023-07-30T11:26:18;12.88;;;4.55;;
20073;SDS011;10197;54.282;10.078;2023-07-30T11:28:46;11.45;;;3.83;;
20073;SDS011;10197;54.282;10.078;2023-07-30T11:31:13;13.35;;;4.07;;
20073;SDS011;10197;54.282;10.078;2023-07-30T11:33:43;11.63;;;3.83;;
20073;SDS011;10197;54.282;10.078;2023-07-30T11:36:12;13.27;;;4.10;;
20073;SDS011;10197;54.282;10.078;2023-07-30T11:38:40;16.05;;;4.72;;
20073;SDS011;10197;54.282;10.078;2023-07-30T11:41:08;12.00;;;3.78;;
20073;SDS011;10197;54.282;10.078;2023-07-30T11:43:37;9.30;;;3.20;;
20073;SDS011;10197;54.282;10.078;2023-07-30T11:46:09;9.05;;;3.50;;
20073;SDS011;10197;54.282;10.078;2023-07-30T11:48:38;12.85;;;3.30;;
20073;SDS011;10197;54.282;10.078;2023-07-30T11:51:07;10.25;;;3.13;;
20073;SDS011;10197;54.282;10.078;2023-07-30T11:53:44;7.07;;;2.47;;
20073;SDS011;10197;54.282;10.078;2023-07-30T11:56:15;10.68;;;2.60;;
20073;SDS011;10197;54.282;10.078;2023-07-30T11:58:43;5.60;;;2.35;;
20073;SDS011;10197;54.282;10.078;2023-07-30T12:01:09;6.10;;;2.30;;
20073;SDS011;10197;54.282;10.078;2023-07-30T12:03:37;13.05;;;3.13;;
20073;SDS011;10197;54.282;10.078;2023-07-30T12:06:04;8.38;;;2.63;;
20073;SDS011;10197;54.282;10.078;2023-07-30T12:08:34;8.25;;;2.38;;
20073;SDS011;10197;54.282;10.078;2023-07-30T12:11:05;5.60;;;2.15;;
20073;SDS011;10197;54.282;10.078;2023-07-30T12:13:32;6.43;;;2.33;;
20073;SDS011;10197;54.282;10.078;2023-07-30T12:16:00;6.18;;;2.10;;
20073;SDS011;10197;54.282;10.078;2023-07-30T12:18:26;5.93;;;2.20;;
20073;SDS011;10197;54.282;10.078;2023-07-30T12:20:54;5.25;;;2.10;;
20073;SDS011;10197;54.282;10.078;2023-07-30T12:23:21;7.60;;;2.30;;
20073;SDS011;10197;54.282;10.078;2023-07-30T12:25:50;4.47;;;2.08;;
20073;SDS011;10197;54.282;10.078;2023-07-30T12:28:17;9.80;;;2.97;;
20073;SDS011;10197;54.282;10.078;2023-07-30T12:30:43;6.50;;;2.00;;
20073;SDS011;10197;54.282;10.078;2023-07-30T12:33:10;6.72;;;2.08;;
20073;SDS011;10197;54.282;10.078;2023-07-30T12:35:37;7.93;;;2.40;;
20073;SDS011;10197;54.282;10.078;2023-07-30T12:38:03;5.30;;;2.15;;
20073;SDS011;10197;54.282;10.078;2023-07-30T12:40:30;8.15;;;1.80;;
20073;SDS011;10197;54.282;10.078;2023-07-30T12:43:01;5.03;;;2.17;;
20073;SDS011;10197;54.282;10.078;2023-07-30T12:45:29;7.30;;;2.28;;
20073;SDS011;10197;54.282;10.078;2023-07-30T12:47:56;9.50;;;2.50;;
20073;SDS011;10197;54.282;10.078;2023-07-30T12:50:23;6.70;;;2.60;;
20073;SDS011;10197;54.282;10.078;2023-07-30T12:52:50;8.35;;;2.80;;
20073;SDS011;10197;54.282;10.078;2023-07-30T12:55:17;7.80;;;2.53;;
20073;SDS011;10197;54.282;10.078;2023-07-30T12:57:44;6.53;;;2.15;;
20073;SDS011;10197;54.282;10.078;2023-07-30T13:00:14;4.50;;;2.30;;
20073;SDS011;10197;54.282;10.078;2023-07-30T13:02:42;7.53;;;2.33;;
20073;SDS011;10197;54.282;10.078;2023-07-30T13:05:09;5.60;;;2.10;;
20073;SDS011;10197;54.282;10.078;2023-07-30T13:07:39;6.93;;;2.60;;
20073;SDS011;10197;54.282;10.078;2023-07-30T13:10:06;8.15;;;2.70;;
20073;SDS011;10197;54.282;10.078;2023-07-30T13:12:35;10.35;;;2.95;;
20073;SDS011;10197;54.282;10.078;2023-07-30T13:15:03;7.70;;;2.83;;
20073;SDS011;10197;54.282;10.078;2023-07-30T13:17:32;8.60;;;2.60;;
20073;SDS011;10197;54.282;10.078;2023-07-30T13:19:59;7.50;;;2.63;;
20073;SDS011;10197;54.282;10.078;2023-07-30T13:22:25;6.88;;;2.60;;
20073;SDS011;10197;54.282;10.078;2023-07-30T13:24:52;8.13;;;2.42;;
20073;SDS011;10197;54.282;10.078;2023-07-30T13:27:20;8.25;;;3.15;;
20073;SDS011;10197;54.282;10.078;2023-07-30T13:29:47;10.10;;;3.67;;
20073;SDS011;10197;54.282;10.078;2023-07-30T13:32:15;7.10;;;3.03;;
20073;SDS011;10197;54.282;10.078;2023-07-30T13:34:43;6.90;;;3.10;;
20073;SDS011;10197;54.282;10.078;2023-07-30T13:37:11;8.32;;;3.22;;
20073;SDS011;10197;54.282;10.078;2023-07-30T13:39:38;7.53;;;2.80;;
20073;SDS011;10197;54.282;10.078;2023-07-30T13:42:05;11.13;;;3.05;;
20073;SDS011;10197;54.282;10.078;2023-07-30T13:44:32;8.52;;;2.78;;
20073;SDS011;10197;54.282;10.078;2023-07-30T13:46:59;7.57;;;3.00;;
20073;SDS011;10197;54.282;10.078;2023-07-30T13:49:26;6.93;;;2.88;;
20073;SDS011;10197;54.282;10.078;2023-07-30T13:51:54;6.13;;;2.70;;
20073;SDS011;10197;54.282;10.078;2023-07-30T13:54:21;6.97;;;2.85;;
20073;SDS011;10197;54.282;10.078;2023-07-30T13:56:48;9.35;;;3.53;;
20073;SDS011;10197;54.282;10.078;2023-07-30T13:59:14;7.47;;;3.40;;
20073;SDS011;10197;54.282;10.078;2023-07-30T14:01:41;8.70;;;3.17;;
20073;SDS011;10197;54.282;10.078;2023-07-30T14:04:07;7.28;;;2.92;;
20073;SDS011;10197;54.282;10.078;2023-07-30T14:06:34;10.52;;;3.60;;
20073;SDS011;10197;54.282;10.078;2023-07-30T14:09:03;5.70;;;3.25;;
20073;SDS011;10197;54.282;10.078;2023-07-30T14:11:30;4.50;;;2.80;;
20073;SDS011;10197;54.282;10.078;2023-07-30T14:13:57;5.70;;;2.90;;
20073;SDS011;10197;54.282;10.078;2023-07-30T14:16:24;9.88;;;3.42;;
20073;SDS011;10197;54.282;10.078;2023-07-30T14:18:50;8.55;;;3.00;;
20073;SDS011;10197;54.282;10.078;2023-07-30T14:21:18;9.63;;;3.50;;
20073;SDS011;10197;54.282;10.078;2023-07-30T14:23:45;7.68;;;3.20;;
20073;SDS011;10197;54.282;10.078;2023-07-30T14:26:13;6.65;;;3.58;;
20073;SDS011;10197;54.282;10.078;2023-07-30T14:28:40;7.88;;;3.17;;
20073;SDS011;10197;54.282;10.078;2023-07-30T14:31:07;6.78;;;3.20;;